Time;durP1;ratioP1;P1;durP2;ratioP2;P2;SDS_P1;SDS_P2;PMS_P1;PMS_P2;Temp;Humidity;BMP_temperature;BMP_pressure;BME280_temperature;BME280_humidity;BME280_pressure;Samples;Min_cycle;Max_cycle;Signal;HPM_P1;HPM_P2
2021/08/25 00:02:09;;;;;;;;;;;;;;;10.87;93.17;98661.75;1775823;81;20119;-75
2021/08/25 00:04:39;;;;;;;;;;;;;;;10.84;93.16;98662.80;1775741;81;20391;-79
2021/08/25 00:07:08;;;;;;;;;;;;;;;10.78;93.27;98658.46;1776040;80;20127;-75
2021/08/25 00:09:36;;;;;;;;;;;;;;;10.63;93.46;98649.72;1775666;80;20174;-75
2021/08/25 00:12:02;;;;;;;;;;;;;;;10.54;93.56;98649.41;1775481;80;21803;-79
2021/08/25 00:14:28;;;;;;;;;;;;;;;10.48;95.00;98651.00;1775590;80;20131;-75
2021/08/25 00:16:54;;;;;;;;;;;;;;;10.51;94.16;98643.69;1775985;81;20178;-75
2021/08/25 00:19:19;;;;;;;;;;;;;;;10.49;94.00;98645.85;1775626;80;20228;-75
2021/08/25 00:21:45;;;;;;;;;;;;;;;10.47;95.10;98643.95;1775913;81;20185;-79
2021/08/25 00:24:11;;;;;;;;;;;;;;;10.49;94.85;98639.89;1775683;80;21063;-79
2021/08/25 00:26:37;;;;;;;;;;;;;;;10.50;94.53;98639.34;1775913;80;20157;-79
2021/08/25 00:29:03;;;;;;;;;;;;;;;10.44;94.59;98630.41;1775684;80;20169;-75
2021/08/25 00:31:28;;;;;;;;;;;;;;;10.47;94.55;98631.76;1775812;81;20623;-75
2021/08/25 00:33:54;;;;;;;;;;;;;;;10.40;96.79;98626.03;1775621;81;20244;-75
2021/08/25 00:36:20;;;;;;;;;;;;;;;10.41;97.51;98624.95;1775987;80;21145;-75
2021/08/25 00:38:46;;;;;;;;;;;;;;;10.50;97.48;98619.84;1775578;80;20157;-75
2021/08/25 00:41:11;;;;;;;;;;;;;;;10.54;95.75;98618.79;1776010;80;20217;-79
2021/08/25 00:43:37;;;;;;;;;;;;;;;10.45;95.61;98619.30;1775655;80;20145;-79
2021/08/25 00:46:04;;;;;;;;;;;;;;;10.41;95.01;98615.47;1775867;80;20697;-79
2021/08/25 00:48:30;;;;;;;;;;;;;;;10.38;95.00;98614.65;1775686;80;21047;-75
2021/08/25 00:50:56;;;;;;;;;;;;;;;10.30;96.00;98611.63;1775921;80;20209;-75
2021/08/25 00:53:24;;;;;;;;;;;;;;;10.32;95.58;98605.41;1775812;80;20229;-79
2021/08/25 00:55:54;;;;;;;;;;;;;;;10.30;96.88;98607.56;1775723;80;20119;-79
2021/08/25 00:58:20;;;;;;;;;;;;;;;10.30;96.94;98609.73;1775700;80;20129;-79
2021/08/25 01:01:02;;;;;;;;;;;;;;;10.30;96.16;98608.38;1775840;80;20606;-79
2021/08/25 01:03:29;;;;;;;;;;;;;;;10.37;96.20;98609.50;1775615;80;20118;-79
2021/08/25 01:05:54;;;;;;;;;;;;;;;10.48;95.83;98604.94;1775807;80;20159;-75
2021/08/25 01:08:20;;;;;;;;;;;;;;;10.43;95.29;98601.14;1775828;80;20137;-76
2021/08/25 01:10:46;;;;;;;;;;;;;;;10.36;95.32;98603.27;1775947;80;20185;-79
2021/08/25 01:13:12;;;;;;;;;;;;;;;10.29;95.38;98603.23;1775628;80;21074;-75
2021/08/25 01:15:39;;;;;;;;;;;;;;;10.21;95.62;98603.16;1775863;81;20197;-79
2021/08/25 01:18:06;;;;;;;;;;;;;;;10.22;95.78;98602.11;1775697;80;20123;-79
2021/08/25 01:20:32;;;;;;;;;;;;;;;10.20;95.81;98605.59;1775981;80;20095;-75
2021/08/25 01:22:58;;;;;;;;;;;;;;;10.16;95.91;98608.53;1754309;81;20170;-79
2021/08/25 01:25:25;;;;;;;;;;;;;;;10.13;95.84;98601.76;1775877;80;21074;-75
2021/08/25 01:27:55;;;;;;;;;;;;;;;10.08;96.67;98605.81;1775726;80;20446;-75
2021/08/25 01:30:23;;;;;;;;;;;;;;;10.10;97.39;98595.52;1775898;80;20163;-79
2021/08/25 01:32:49;;;;;;;;;;;;;;;10.13;98.09;98600.41;1775749;81;20225;-75
2021/08/25 01:35:15;;;;;;;;;;;;;;;10.17;98.20;98600.71;1775833;80;20142;-79
2021/08/25 01:37:41;;;;;;;;;;;;;;;10.20;97.69;98597.47;1775716;80;21131;-79
2021/08/25 01:40:08;;;;;;;;;;;;;;;10.27;97.28;98595.91;1775745;81;20236;-75
2021/08/25 01:42:33;;;;;;;;;;;;;;;10.31;97.71;98594.30;1775528;80;20421;-75
2021/08/25 01:44:59;;;;;;;;;;;;;;;10.33;96.36;98603.78;1775488;80;20709;-79
2021/08/25 01:47:25;;;;;;;;;;;;;;;10.31;96.41;98599.17;1775873;80;20200;-75
2021/08/25 01:49:54;;;;;;;;;;;;;;;10.37;96.41;98598.66;1775480;80;21873;-75
2021/08/25 01:52:20;;;;;;;;;;;;;;;10.40;96.32;98604.36;1775765;81;20178;-75
2021/08/25 01:54:46;;;;;;;;;;;;;;;10.44;96.36;98598.70;1776428;80;20135;-79
2021/08/25 01:57:12;;;;;;;;;;;;;;;10.37;95.34;98591.35;1781581;80;20127;-75
2021/08/25 01:59:38;;;;;;;;;;;;;;;10.37;95.79;98596.77;1781376;80;20131;-75
2021/08/25 02:02:04;;;;;;;;;;;;;;;10.41;95.79;98591.08;1781582;80;21122;-75
2021/08/25 02:04:30;;;;;;;;;;;;;;;10.40;95.48;98586.75;1781313;80;20415;-79
2021/08/25 02:06:56;;;;;;;;;;;;;;;10.39;95.34;98576.99;1781692;80;20188;-79
2021/08/25 02:09:22;;;;;;;;;;;;;;;10.35;95.12;98577.27;1781408;80;20169;-80
2021/08/25 02:11:48;;;;;;;;;;;;;;;10.37;95.22;98577.80;1781704;80;20701;-79
2021/08/25 02:14:14;;;;;;;;;;;;;;;10.36;94.93;98572.66;1781380;80;20986;-75
2021/08/25 02:16:39;;;;;;;;;;;;;;;10.38;94.76;98572.66;1781509;80;20173;-75
2021/08/25 02:19:05;;;;;;;;;;;;;;;10.30;94.33;98571.81;1781304;80;20229;-75
2021/08/25 02:21:31;;;;;;;;;;;;;;;10.16;94.25;98564.66;1781593;80;20161;-75
2021/08/25 02:23:57;;;;;;;;;;;;;;;10.02;94.47;98573.55;1781460;80;20177;-75
2021/08/25 02:26:22;;;;;;;;;;;;;;;9.96;94.74;98570.52;1781429;80;21131;-75
2021/08/25 02:28:50;;;;;;;;;;;;;;;9.95;94.50;98567.00;1781465;80;20201;-79
2021/08/25 02:31:16;;;;;;;;;;;;;;;9.90;94.64;98560.19;1781584;80;20414;-75
2021/08/25 02:33:41;;;;;;;;;;;;;;;9.89;94.58;98560.73;1781347;80;20637;-74
2021/08/25 02:36:08;;;;;;;;;;;;;;;9.85;94.55;98565.59;1781607;80;20185;-75
2021/08/25 02:38:33;;;;;;;;;;;;;;;9.78;94.64;98556.34;1781392;80;21043;-74
2021/08/25 02:40:59;;;;;;;;;;;;;;;9.75;94.72;98554.17;1781510;80;20228;-77
2021/08/25 02:43:25;;;;;;;;;;;;;;;9.76;94.10;98550.39;1781543;80;20196;-74
2021/08/25 02:45:50;;;;;;;;;;;;;;;9.72;94.35;98556.56;1781612;80;20177;-79
2021/08/25 02:48:16;;;;;;;;;;;;;;;9.72;94.42;98556.56;1781576;80;20173;-74
2021/08/25 02:50:42;;;;;;;;;;;;;;;9.66;94.03;98558.45;1781575;80;21080;-75
2021/08/25 02:53:08;;;;;;;;;;;;;;;9.66;94.33;98558.98;1781422;80;20169;-80
2021/08/25 02:55:34;;;;;;;;;;;;;;;9.66;94.70;98561.69;1779389;80;20169;-75
2021/08/25 02:57:59;;;;;;;;;;;;;;;9.67;94.68;98564.67;1775508;80;20276;-74
2021/08/25 03:00:26;;;;;;;;;;;;;;;9.66;94.08;98563.05;1776027;80;20189;-75
2021/08/25 03:02:51;;;;;;;;;;;;;;;9.59;94.05;98562.72;1775599;81;21057;-75
2021/08/25 03:05:17;;;;;;;;;;;;;;;9.59;94.48;98561.91;1775852;80;20256;-75
2021/08/25 03:07:43;;;;;;;;;;;;;;;9.61;94.49;98556.50;1775922;80;20689;-75
2021/08/25 03:10:09;;;;;;;;;;;;;;;9.59;94.15;98564.61;1775633;80;20204;-75
2021/08/25 03:12:35;;;;;;;;;;;;;;;9.53;94.20;98564.29;1776021;80;20434;-75
2021/08/25 03:15:01;;;;;;;;;;;;;;;9.52;94.40;98562.13;1775697;80;21120;-79
2021/08/25 03:17:27;;;;;;;;;;;;;;;9.51;94.53;98567.80;1775942;80;20426;-74
2021/08/25 03:19:52;;;;;;;;;;;;;;;9.56;94.71;98564.58;1775637;81;20135;-80
2021/08/25 03:22:18;;;;;;;;;;;;;;;9.59;94.47;98570.84;1776000;80;20193;-80
2021/08/25 03:24:44;;;;;;;;;;;;;;;9.53;94.60;98570.52;1775760;80;20264;-75
2021/08/25 03:27:09;;;;;;;;;;;;;;;9.56;95.29;98571.34;1775864;80;21088;-75
2021/08/25 03:29:35;;;;;;;;;;;;;;;9.63;94.81;98564.36;1775570;80;20305;-75
2021/08/25 03:32:01;;;;;;;;;;;;;;;9.64;94.68;98563.81;1775852;80;20733;-75
2021/08/25 03:34:27;;;;;;;;;;;;;;;9.61;94.81;98561.10;1754057;81;20196;-80
2021/08/25 03:36:52;;;;;;;;;;;;;;;9.66;94.76;98558.45;1776008;80;20201;-80
2021/08/25 03:39:18;;;;;;;;;;;;;;;9.64;94.43;98563.28;1775739;80;21859;-79
2021/08/25 03:41:44;;;;;;;;;;;;;;;9.64;94.46;98565.17;1775867;80;20276;-75
2021/08/25 03:44:10;;;;;;;;;;;;;;;9.63;94.49;98560.30;1775732;80;20248;-75
2021/08/25 03:46:36;;;;;;;;;;;;;;;9.65;94.25;98560.84;1776018;80;20285;-80
2021/08/25 03:49:03;;;;;;;;;;;;;;;9.59;94.30;98560.55;1775800;80;20175;-79
2021/08/25 03:51:28;;;;;;;;;;;;;;;9.58;94.33;98556.22;1775809;81;21053;-75
2021/08/25 03:53:54;;;;;;;;;;;;;;;9.61;94.48;98560.56;1775686;81;20174;-80
2021/08/25 03:56:20;;;;;;;;;;;;;;;9.63;94.17;98560.30;1773144;80;20153;-75
2021/08/25 03:58:46;;;;;;;;;;;;;;;9.64;93.98;98559.76;1771222;80;20352;-75
2021/08/25 04:01:12;;;;;;;;;;;;;;;9.66;94.08;98557.09;1771296;80;20149;-79
2021/08/25 04:03:38;;;;;;;;;;;;;;;9.69;93.75;98558.45;1771497;80;21074;-80
2021/08/25 04:06:04;;;;;;;;;;;;;;;9.70;93.84;98562.78;1771487;81;20174;-79
2021/08/25 04:08:29;;;;;;;;;;;;;;;9.70;93.76;98560.89;1745292;81;20674;-80
2021/08/25 04:10:55;;;;;;;;;;;;;;;9.75;93.68;98556.88;1771503;81;20217;-80
2021/08/25 04:13:21;;;;;;;;;;;;;;;9.74;93.44;98557.11;1771356;80;20142;-75
2021/08/25 04:15:47;;;;;;;;;;;;;;;9.77;93.40;98557.42;1771573;80;21178;-80
2021/08/25 04:18:13;;;;;;;;;;;;;;;9.81;93.58;98544.17;1771329;81;20189;-75
2021/08/25 04:20:38;;;;;;;;;;;;;;;9.88;93.44;98552.87;1771618;80;20153;-74
2021/08/25 04:23:04;;;;;;;;;;;;;;;9.92;93.40;98547.23;1771453;80;20146;-75
2021/08/25 04:25:30;;;;;;;;;;;;;;;9.89;92.99;98543.67;1771294;80;20141;-80
2021/08/25 04:27:55;;;;;;;;;;;;;;;9.93;93.09;98538.58;1771584;80;21010;-75
2021/08/25 04:30:21;;;;;;;;;;;;;;;9.89;92.66;98541.78;1771331;80;20173;-80
2021/08/25 04:32:47;;;;;;;;;;;;;;;9.83;92.66;98536.63;1771444;80;20136;-75
2021/08/25 04:35:13;;;;;;;;;;;;;;;9.77;92.79;98529.55;1771218;80;20252;-79
2021/08/25 04:37:39;;;;;;;;;;;;;;;9.84;93.31;98539.61;1771656;81;20182;-80
2021/08/25 04:40:06;;;;;;;;;;;;;;;9.93;93.10;98539.38;1771478;80;21141;-80
2021/08/25 04:42:32;;;;;;;;;;;;;;;10.00;93.14;98531.00;1771515;80;20142;-75
2021/08/25 04:44:58;;;;;;;;;;;;;;;10.08;93.01;98538.63;1771253;80;20666;-80
2021/08/25 04:47:23;;;;;;;;;;;;;;;10.10;92.88;98533.78;1771600;81;20313;-80
2021/08/25 04:49:49;;;;;;;;;;;;;;;10.15;92.76;98533.79;1771323;81;20157;-75
2021/08/25 04:52:15;;;;;;;;;;;;;;;10.17;92.71;98537.88;1771503;80;21151;-75
2021/08/25 04:54:41;;;;;;;;;;;;;;;10.17;92.64;98539.23;1745118;81;20276;-75
2021/08/25 04:57:07;;;;;;;;;;;;;;;10.18;92.55;98540.05;1771177;80;20147;-80
2021/08/25 04:59:33;;;;;;;;;;;;;;;10.20;92.69;98537.08;1771304;80;20169;-79
2021/08/25 05:01:58;;;;;;;;;;;;;;;10.25;92.50;98534.39;1771601;80;20225;-75
2021/08/25 05:04:24;;;;;;;;;;;;;;;10.32;92.58;98533.62;1771219;80;21054;-75
2021/08/25 05:06:50;;;;;;;;;;;;;;;;;;1771625;80;20269;-79
2021/08/25 05:09:15;;;;;;;;;;;;;;;10.45;92.03;98530.42;1771200;81;20154;-75
2021/08/25 05:11:41;;;;;;;;;;;;;;;10.32;91.83;98520.89;1771589;80;20166;-75
2021/08/25 05:14:07;;;;;;;;;;;;;;;10.32;91.88;98523.59;1771195;80;20178;-80
2021/08/25 05:16:32;;;;;;;;;;;;;;;10.32;91.91;98520.89;1771193;80;21913;-79
2021/08/25 05:18:58;;;;;;;;;;;;;;;10.36;92.00;98527.42;1771191;80;20677;-79
2021/08/25 05:21:25;;;;;;;;;;;;;;;10.45;92.12;98524.47;1771481;80;20209;-75
2021/08/25 05:23:50;;;;;;;;;;;;;;;10.54;91.87;98528.83;1771268;81;20201;-80
2021/08/25 05:26:16;;;;;;;;;;;;;;;10.56;91.94;98527.20;1771609;80;20153;-75
2021/08/25 05:28:42;;;;;;;;;;;;;;;10.64;91.81;98519.91;1771375;80;21818;-75
2021/08/25 05:31:08;;;;;;;;;;;;;;;10.73;91.70;98518.30;1771462;81;20689;-76
2021/08/25 05:33:33;;;;;;;;;;;;;;;10.81;91.15;98516.41;1771252;81;20665;-80
2021/08/25 05:35:59;;;;;;;;;;;;;;;10.77;90.59;98514.49;1771427;80;20634;-75
2021/08/25 05:38:26;;;;;;;;;;;;;;;10.74;90.82;98516.66;1771372;80;20201;-79
2021/08/25 05:40:51;;;;;;;;;;;;;;;10.74;90.68;98517.20;1771188;80;21193;-80
2021/08/25 05:43:17;;;;;;;;;;;;;;;10.81;90.44;98523.73;1771363;80;20200;-75
2021/08/25 05:45:44;;;;;;;;;;;;;;;10.80;90.60;98516.69;1771282;80;20178;-80
2021/08/25 05:48:10;;;;;;;;;;;;;;;10.87;90.06;98511.27;1771426;80;20127;-79
2021/08/25 05:50:35;;;;;;;;;;;;;;;10.83;90.45;98513.42;1771235;81;20157;-80
2021/08/25 05:53:01;;;;;;;;;;;;;;;10.87;90.54;98513.98;1771333;80;21150;-75
2021/08/25 05:55:27;;;;;;;;;;;;;;;10.98;90.67;98514.26;1771193;80;20165;-79
2021/08/25 05:57:53;;;;;;;;;;;;;;;11.08;90.46;98518.06;1771105;80;20193;-75
2021/08/25 06:00:19;;;;;;;;;;;;;;;11.12;90.43;98513.20;1771352;81;20157;-79
2021/08/25 06:02:45;;;;;;;;;;;;;;;11.17;90.23;98511.82;1771425;81;20095;-75
2021/08/25 06:05:11;;;;;;;;;;;;;;;11.28;90.21;98516.72;1771246;81;21866;-80
2021/08/25 06:07:37;;;;;;;;;;;;;;;11.30;89.83;98519.42;1771391;81;20135;-80
2021/08/25 06:10:03;;;;;;;;;;;;;;;11.35;89.57;98517.78;1771081;80;20233;-75
2021/08/25 06:12:29;;;;;;;;;;;;;;;11.42;89.67;98521.84;1771393;81;20139;-75
2021/08/25 06:14:55;;;;;;;;;;;;;;;11.49;90.07;98518.31;1771097;80;20245;-75
2021/08/25 06:17:21;;;;;;;;;;;;;;;11.64;89.54;98521.56;1771414;80;21075;-80
2021/08/25 06:19:46;;;;;;;;;;;;;;;11.69;89.16;98516.65;1771064;80;20259;-80
2021/08/25 06:22:12;;;;;;;;;;;;;;;11.69;89.15;98517.46;1771432;80;20197;-79
2021/08/25 06:24:38;;;;;;;;;;;;;;;11.77;88.88;98520.98;1771319;80;20125;-75
2021/08/25 06:27:04;;;;;;;;;;;;;;;11.77;88.61;98519.62;1771456;80;20166;-75
2021/08/25 06:29:30;;;;;;;;;;;;;;;11.80;88.32;98523.19;1771143;81;21795;-79
2021/08/25 06:31:55;;;;;;;;;;;;;;;11.82;88.64;98522.37;1771374;81;20173;-80
2021/08/25 06:34:21;;;;;;;;;;;;;;;11.94;88.29;98521.23;1771295;80;20200;-75
2021/08/25 06:36:47;;;;;;;;;;;;;;;12.02;88.27;98519.31;1771735;80;20213;-75
2021/08/25 06:39:13;;;;;;;;;;;;;;;12.09;87.74;98518.48;1771341;80;20169;-75
2021/08/25 06:41:38;;;;;;;;;;;;;;;12.07;87.80;98517.41;1771584;81;21078;-80
2021/08/25 06:44:04;;;;;;;;;;;;;;;12.16;87.53;98520.91;1771161;81;20165;-75
2021/08/25 06:46:30;;;;;;;;;;;;;;;12.14;87.83;98519.83;1771565;81;20442;-75
2021/08/25 06:48:56;;;;;;;;;;;;;;;12.16;87.36;98516.28;1771335;80;20145;-75
2021/08/25 06:51:22;;;;;;;;;;;;;;;12.27;87.22;98517.86;1771803;80;20245;-80
2021/08/25 06:53:47;;;;;;;;;;;;;;;12.29;86.61;98516.22;1771500;80;21120;-80
2021/08/25 06:56:13;;;;;;;;;;;;;;;12.25;86.27;98512.45;1771912;80;20192;-79
2021/08/25 06:58:39;;;;;;;;;;;;;;;12.33;86.74;98509.96;1775789;80;20637;-75
2021/08/25 07:01:05;;;;;;;;;;;;;;;12.37;86.69;98514.28;1775722;80;20240;-80
2021/08/25 07:03:30;;;;;;;;;;;;;;;12.49;86.42;98513.42;1775909;80;20165;-75
2021/08/25 07:05:56;;;;;;;;;;;;;;;12.58;86.15;98512.28;1775684;80;21126;-80
2021/08/25 07:08:22;;;;;;;;;;;;;;;12.66;85.94;98506.26;1775742;80;20342;-75
2021/08/25 07:10:48;;;;;;;;;;;;;;;12.81;86.38;98503.42;1775716;80;20244;-80
2021/08/25 07:13:13;;;;;;;;;;;;;;;13.05;85.16;98502.16;1775796;80;20324;-75
2021/08/25 07:15:39;;;;;;;;;;;;;;;13.20;84.69;98499.91;1775768;80;20178;-80
2021/08/25 07:18:05;;;;;;;;;;;;;;;13.22;84.37;98497.70;1775834;81;21940;-79
2021/08/25 07:20:31;;;;;;;;;;;;;;;13.36;84.29;98501.41;1775779;81;20189;-75
2021/08/25 07:22:56;;;;;;;;;;;;;;;13.56;83.90;98490.86;1775935;81;20197;-80
2021/08/25 07:25:22;;;;;;;;;;;;;;;13.98;83.46;98499.67;1775772;80;20169;-76
2021/08/25 07:27:48;;;;;;;;;;;;;;;14.27;82.36;98495.53;1775985;80;20142;-75
2021/08/25 07:30:14;;;;;;;;;;;;;;;14.23;82.84;98501.84;1775756;80;21136;-75
2021/08/25 07:32:40;;;;;;;;;;;;;;;14.36;82.83;98488.88;1775958;81;20220;-75
2021/08/25 07:35:10;;;;;;;;;;;;;;;14.41;82.10;98492.87;1775821;80;20181;-80
2021/08/25 07:37:36;;;;;;;;;;;;;;;14.50;81.26;98488.97;1776103;80;20135;-80
2021/08/25 07:40:02;;;;;;;;;;;;;;;14.64;82.17;98493.97;1775614;81;20128;-75
2021/08/25 07:42:28;;;;;;;;;;;;;;;14.79;81.86;98491.58;1775800;80;21107;-75
2021/08/25 07:44:54;;;;;;;;;;;;;;;15.03;81.18;98491.46;1775565;81;20228;-80
2021/08/25 07:47:19;;;;;;;;;;;;;;;15.18;79.01;98483.03;1776055;80;20189;-75
2021/08/25 07:49:45;;;;;;;;;;;;;;;15.26;76.41;98480.18;1775619;80;20146;-80
2021/08/25 07:52:11;;;;;;;;;;;;;;;15.42;77.59;98480.17;1776011;81;20193;-75
2021/08/25 07:54:37;;;;;;;;;;;;;;;15.72;76.07;98478.83;1776051;80;21003;-80
2021/08/25 07:57:03;;;;;;;;;;;;;;;16.04;74.20;98480.67;1775788;80;20302;-75
2021/08/25 07:59:29;;;;;;;;;;;;;;;16.33;71.10;98474.34;1775762;81;20154;-79
2021/08/25 08:01:54;;;;;;;;;;;;;;;16.79;74.80;98469.23;1775992;80;20220;-79
2021/08/25 08:04:20;;;;;;;;;;;;;;;17.18;71.22;98463.66;1775642;80;20166;-76
2021/08/25 08:06:46;;;;;;;;;;;;;;;17.22;69.34;98463.27;1775894;80;21091;-80
2021/08/25 08:09:12;;;;;;;;;;;;;;;18.03;68.07;98461.67;1775655;81;20126;-79
2021/08/25 08:11:38;;;;;;;;;;;;;;;18.30;69.52;98463.39;1775891;81;20259;-80
2021/08/25 08:14:05;;;;;;;;;;;;;;;18.51;66.17;98452.59;1775858;80;20169;-76
2021/08/25 08:16:34;;;;;;;;;;;;;;;18.47;65.86;98450.27;1775733;81;20427;-80
2021/08/25 08:19:04;;;;;;;;;;;;;;;18.47;65.78;98449.70;1775764;80;21068;-80
2021/08/25 08:21:27;;;;;;;;;;;;;;;18.48;63.17;98443.64;1775539;80;20148;-76
2021/08/25 08:23:52;;;;;;;;;;;;;;;18.61;54.56;98444.85;1775721;81;20220;-76
2021/08/25 08:26:18;;;;;;;;;;;;;;;18.53;57.72;98438.79;1775745;80;20228;-80
2021/08/25 08:28:44;;;;;;;;;;;;;;;18.91;50.42;98442.88;1775824;80;20130;-80
2021/08/25 08:31:10;;;;;;;;;;;;;;;19.90;53.55;98433.99;1775749;80;21077;-76
2021/08/25 08:33:37;;;;;;;;;;;;;;;20.89;55.25;98428.84;1775803;80;20209;-80
2021/08/25 08:36:03;;;;;;;;;;;;;;;20.36;52.35;98431.73;1775699;80;20422;-80
2021/08/25 08:38:29;;;;;;;;;;;;;;;20.13;52.51;98428.45;1775856;80;20115;-76
2021/08/25 08:40:55;;;;;;;;;;;;;;;19.59;52.23;98428.23;1775643;80;20133;-80
2021/08/25 08:43:20;;;;;;;;;;;;;;;19.99;53.03;98423.75;1775685;80;21071;-76
2021/08/25 08:45:46;;;;;;;;;;;;;;;21.08;46.38;98419.50;1775555;80;20168;-80
2021/08/25 08:48:13;;;;;;;;;;;;;;;22.22;37.48;98415.13;1775692;80;20216;-80
2021/08/25 08:50:42;;;;;;;;;;;;;;;22.90;37.37;98416.34;1754365;81;20119;-79
2021/08/25 08:53:09;;;;;;;;;;;;;;;21.63;33.36;98410.03;1775537;81;20135;-80
2021/08/25 08:55:35;;;;;;;;;;;;;;;21.62;36.77;98412.56;1753998;81;21788;-76
2021/08/25 08:58:01;;;;;;;;;;;;;;;21.15;42.20;98410.69;1775523;80;20190;-80
2021/08/25 09:00:27;;;;;;;;;;;;;;;20.84;46.20;98402.30;1775681;80;20160;-79
2021/08/25 09:02:53;;;;;;;;;;;;;;;20.89;47.01;98407.37;1775742;81;20162;-77
2021/08/25 09:05:26;;;;;;;;;;;;;;;21.10;38.16;98405.38;1754107;81;20249;-81
2021/08/25 09:07:58;;;;;;;;;;;;;;;22.29;42.82;98404.86;1775873;81;21011;-81
2021/08/25 09:10:26;;;;;;;;;;;;;;;21.60;39.18;98403.80;1775700;80;20115;-81
2021/08/25 09:12:55;;;;;;;;;;;;;;;22.06;38.62;98394.06;1775521;81;20131;-77
2021/08/25 09:15:26;;;;;;;;;;;;;;;21.18;38.59;98398.17;1775051;80;20383;-77
2021/08/25 09:17:58;;;;;;;;;;;;;;;20.21;35.71;98395.97;1776018;81;20086;-77
2021/08/25 09:20:24;;;;;;;;;;;;;;;18.94;39.94;98388.69;1775715;81;21052;-76
2021/08/25 09:23:09;;;;;;;;;;;;;;;18.99;44.64;98384.41;1775714;80;20172;-76
2021/08/25 09:25:36;;;;;;;;;;;;;;;18.86;44.72;98379.33;1775799;80;20158;-76
2021/08/25 09:28:02;;;;;;;;;;;;;;;18.12;44.13;98381.64;1775834;80;20169;-76
2021/08/25 09:30:50;;;;;;;;;;;;;;;17.81;47.36;98380.34;1775771;80;20139;-76
2021/08/25 09:33:16;;;;;;;;;;;;;;;17.61;48.37;98377.60;1775973;80;21044;-80
2021/08/25 09:35:42;;;;;;;;;;;;;;;17.54;49.23;98384.66;1775707;80;20071;-80
2021/08/25 09:38:10;;;;;;;;;;;;;;;17.39;48.46;98377.66;1775799;81;20158;-76
2021/08/25 09:40:45;;;;;;;;;;;;;;;17.42;48.84;98372.34;1754587;81;20135;-80
2021/08/25 09:43:10;;;;;;;;;;;;;;;17.37;48.67;98373.06;1775745;81;20135;-80
2021/08/25 09:45:36;;;;;;;;;;;;;;;17.33;49.07;98368.77;1754049;81;21815;-75
2021/08/25 09:48:02;;;;;;;;;;;;;;;17.08;45.30;98365.33;1754146;81;20201;-76
2021/08/25 09:50:28;;;;;;;;;;;;;;;17.44;48.91;98363.84;1775794;80;20414;-81
2021/08/25 09:52:54;;;;;;;;;;;;;;;17.34;45.94;98364.89;1775871;80;20594;-74
2021/08/25 09:55:30;;;;;;;;;;;;;;;17.44;46.81;98361.91;1775742;81;20131;-81
2021/08/25 09:57:56;;;;;;;;;;;;;;;17.61;46.92;98358.42;1778947;80;21107;-73
2021/08/25 10:00:22;;;;;;;;;;;;;;;17.77;45.00;98353.31;1781567;80;20135;-73
2021/08/25 10:02:48;;;;;;;;;;;;;;;18.01;48.08;98355.06;1781635;80;20165;-81
2021/08/25 10:05:13;;;;;;;;;;;;;;;18.15;46.31;98350.82;1781633;80;20145;-73
2021/08/25 10:07:39;;;;;;;;;;;;;;;18.28;47.26;98349.84;1753458;80;20161;-81
2021/08/25 10:10:05;;;;;;;;;;;;;;;18.36;46.25;98350.98;1781437;80;21863;-81
2021/08/25 10:12:31;;;;;;;;;;;;;;;18.07;44.13;98351.62;1781675;80;20122;-73
2021/08/25 10:14:57;;;;;;;;;;;;;;;18.14;46.13;98346.47;1781482;80;20240;-79
2021/08/25 10:17:40;;;;;;;;;;;;;;;18.26;47.06;98347.19;1781894;80;20216;-80
2021/08/25 10:20:33;;;;;;;;;;;;;;;17.90;44.16;98339.25;1781818;80;20403;-80
2021/08/25 10:22:55;;;;;;;;;;;;;;;17.66;43.15;98339.64;1781790;80;21217;-75
2021/08/25 10:25:21;;;;;;;;;;;;;;;17.49;45.98;98334.34;1781716;80;20154;-80
2021/08/25 10:28:05;;;;;;;;;;;;;;;17.04;44.08;98332.87;1781857;80;20147;-80
2021/08/25 10:30:51;;;;;;;;;;;;;;;17.11;43.90;98327.77;1780854;80;20147;-76
2021/08/25 10:33:17;;;;;;;;;;;;;;;16.81;43.12;98334.83;1781624;80;20155;-80
2021/08/25 10:35:44;;;;;;;;;;;;;;;17.17;45.75;98322.38;1781675;80;21087;-80
2021/08/25 10:38:23;;;;;;;;;;;;;;;16.96;46.24;98319.38;1781519;80;20406;-80
2021/08/25 10:40:51;;;;;;;;;;;;;;;16.56;43.98;98319.26;1781657;80;20130;-75
2021/08/25 10:43:38;;;;;;;;;;;;;;;16.53;42.73;98315.79;1781589;80;20398;-80
2021/08/25 10:46:05;;;;;;;;;;;;;;;16.82;45.85;98310.44;1780348;80;20158;-76
2021/08/25 10:48:48;;;;;;;;;;;;;;;17.07;45.54;98303.48;1781638;80;21149;-80
2021/08/25 10:51:24;;;;;;;;;;;;;;;17.11;45.66;98300.38;1781530;80;20146;-80
2021/08/25 10:53:50;;;;;;;;;;;;;;;17.27;47.07;98297.47;1780718;80;20154;-79
2021/08/25 10:56:19;;;;;;;;;;;;;;;17.61;47.55;98300.08;1781599;80;20137;-80
2021/08/25 10:58:54;;;;;;;;;;;;;;;17.87;46.27;98295.48;1779854;80;20074;-80
2021/08/25 11:01:25;;;;;;;;;;;;;;;17.77;44.68;98291.65;1781524;80;21834;-80
2021/08/25 11:03:52;;;;;;;;;;;;;;;17.75;44.63;98287.86;1779443;80;20136;-80
2021/08/25 11:06:39;;;;;;;;;;;;;;;17.83;45.72;98282.16;1781534;80;20423;-76
2021/08/25 11:09:32;;;;;;;;;;;;;;;17.57;44.28;98278.53;1781662;80;20127;-80
2021/08/25 11:12:09;;;;;;;;;;;;;;;17.63;46.39;98275.90;1781481;80;20151;-80
2021/08/25 11:14:37;;;;;;;;;;;;;;;17.44;45.54;98269.34;1778840;80;21185;-80
2021/08/25 11:17:05;;;;;;;;;;;;;;;17.38;46.89;98267.30;1781384;80;20453;-76
2021/08/25 11:19:34;;;;;;;;;;;;;;;17.56;47.38;98267.34;1781515;80;20143;-80
2021/08/25 11:22:00;;;;;;;;;;;;;;;17.61;47.46;98261.16;1781414;80;20076;-80
2021/08/25 11:24:40;;;;;;;;;;;;;;;17.41;44.10;98258.99;1781598;80;20390;-79
2021/08/25 11:27:18;;;;;;;;;;;;;;;17.36;45.85;98259.97;1781452;80;21271;-80
2021/08/25 11:29:44;;;;;;;;;;;;;;;17.09;44.69;98260.17;1780693;80;20457;-76
2021/08/25 11:32:09;;;;;;;;;;;;;;;17.01;44.50;98259.60;1781401;80;20196;-80
2021/08/25 11:34:35;;;;;;;;;;;;;;;17.29;45.74;98258.25;1781417;80;20610;-76
2021/08/25 11:37:03;;;;;;;;;;;;;;;17.24;44.36;98255.64;1753051;80;20154;-76
2021/08/25 11:39:30;;;;;;;;;;;;;;;17.01;46.43;98254.13;1781446;80;21764;-80
2021/08/25 11:41:57;;;;;;;;;;;;;;;17.15;45.11;98254.24;1781364;80;20126;-80
2021/08/25 11:44:42;;;;;;;;;;;;;;;17.14;47.29;98252.63;1781533;80;20326;-80
2021/08/25 11:47:10;;;;;;;;;;;;;;;16.87;44.89;98249.55;1780690;80;20415;-76
2021/08/25 11:49:36;;;;;;;;;;;;;;;17.02;47.96;98246.97;1781386;80;20094;-80
2021/08/25 11:52:02;;;;;;;;;;;;;;;17.24;47.85;98237.84;1781451;80;21024;-76
2021/08/25 11:54:28;;;;;;;;;;;;;;;17.11;44.32;98240.16;1781334;80;20207;-76
2021/08/25 11:56:54;;;;;;;;;;;;;;;17.11;44.25;98241.52;1781494;80;20220;-76
2021/08/25 11:59:19;;;;;;;;;;;;;;;17.31;46.28;98238.75;1776186;80;20173;-76
2021/08/25 12:01:45;;;;;;;;;;;;;;;17.35;45.03;98232.91;1775861;80;20150;-80
2021/08/25 12:04:11;;;;;;;;;;;;;;;17.16;45.59;98232.58;1775843;80;21060;-76
2021/08/25 12:06:46;;;;;;;;;;;;;;;17.37;45.62;98230.64;1772109;81;20177;-80
2021/08/25 12:09:16;;;;;;;;;;;;;;;17.55;44.73;98231.48;1775666;80;20398;-76
2021/08/25 12:11:53;;;;;;;;;;;;;;;17.78;44.57;98220.66;1772948;80;20143;-76
2021/08/25 12:14:18;;;;;;;;;;;;;;;17.74;44.00;98219.67;1775188;80;20139;-80
2021/08/25 12:16:44;;;;;;;;;;;;;;;17.78;43.89;98215.19;1754147;81;21819;-76
2021/08/25 12:19:14;;;;;;;;;;;;;;;17.88;45.50;98211.31;1771954;81;20326;-80
2021/08/25 12:21:40;;;;;;;;;;;;;;;17.93;44.32;98209.76;1774613;81;20131;-80
2021/08/25 12:24:10;;;;;;;;;;;;;;;17.68;43.99;98200.38;1775746;81;20135;-80
2021/08/25 12:26:37;;;;;;;;;;;;;;;17.67;44.77;98199.56;1775724;80;20107;-76
2021/08/25 12:29:04;;;;;;;;;;;;;;;17.56;43.64;98201.58;1775728;80;21055;-80
2021/08/25 12:31:34;;;;;;;;;;;;;;;17.25;44.31;98192.09;1775698;80;20182;-80
2021/08/25 12:34:07;;;;;;;;;;;;;;;17.63;43.47;98194.50;1775791;80;20139;-76
2021/08/25 12:36:37;;;;;;;;;;;;;;;17.57;44.25;98191.67;1775818;81;20159;-76
2021/08/25 12:39:10;;;;;;;;;;;;;;;17.39;44.15;98198.26;1775620;81;20324;-77
2021/08/25 12:41:40;;;;;;;;;;;;;;;17.26;44.65;98196.44;1775866;80;20974;-80
2021/08/25 12:44:06;;;;;;;;;;;;;;;17.37;45.42;98190.92;1776107;80;20143;-76
2021/08/25 12:46:33;;;;;;;;;;;;;;;17.21;46.64;98189.20;1775709;80;20204;-76
2021/08/25 12:48:59;;;;;;;;;;;;;;;17.07;46.11;98183.84;1775416;81;20147;-80
2021/08/25 12:51:25;;;;;;;;;;;;;;;17.01;46.28;98184.33;1775885;80;20209;-81